createdAt,value
2019-03-23T00:01:53.644Z,103004.53
2019-03-23T00:04:25.489Z,103005.41
2019-03-23T00:06:56.541Z,102994.06
2019-03-23T00:09:27.484Z,102995.80
2019-03-23T00:11:58.390Z,102996.70
2019-03-23T00:14:31.830Z,102994.06
2019-03-23T00:17:02.729Z,102990.56
2019-03-23T00:19:34.415Z,102989.67
2019-03-23T00:22:06.021Z,102992.31
2019-03-23T00:24:37.762Z,102987.95
2019-03-23T00:27:08.691Z,102987.06
2019-03-23T00:29:39.620Z,102989.67
2019-03-23T00:32:10.539Z,102983.13
2019-03-23T00:34:41.470Z,102981.84
2019-03-23T00:37:12.370Z,102983.58
2019-03-23T00:39:44.122Z,102973.98
2019-03-23T00:42:16.136Z,102975.70
2019-03-23T00:44:47.025Z,102979.20
2019-03-23T00:47:17.934Z,102973.09
2019-03-23T00:49:48.919Z,102973.54
2019-03-23T00:52:19.819Z,102960.02
2019-03-23T00:54:50.765Z,102965.24
2019-03-23T00:57:23.345Z,102967.00
2019-03-23T00:59:54.194Z,102969.16
2019-03-23T01:02:25.098Z,102961.76
2019-03-23T01:04:56.025Z,102956.53
2019-03-23T01:07:26.927Z,102954.77
2019-03-23T01:09:58.728Z,102948.23
2019-03-23T01:12:29.630Z,102939.09
2019-03-23T01:15:01.723Z,102930.80
2019-03-23T01:17:32.632Z,102922.10
2019-03-23T01:20:04.562Z,102901.62
2019-03-23T01:22:36.743Z,102895.50
2019-03-23T01:25:09.150Z,102890.27
2019-03-23T01:27:40.052Z,102887.20
2019-03-23T01:30:14.738Z,102887.66
2019-03-23T01:32:45.641Z,102889.39
2019-03-23T01:35:16.564Z,102897.69
2019-03-23T01:37:47.470Z,102891.16
2019-03-23T01:40:18.416Z,102888.50
2019-03-23T01:42:49.318Z,102882.39
2019-03-23T01:45:20.236Z,102874.55
2019-03-23T01:47:51.134Z,102875.41
2019-03-23T01:50:22.063Z,102872.35
2019-03-23T01:52:52.953Z,102862.30
2019-03-23T01:55:24.741Z,102864.50
2019-03-23T01:57:55.626Z,102864.04
2019-03-23T02:00:26.562Z,102860.55
2019-03-23T02:02:57.471Z,102858.78
2019-03-23T02:05:28.394Z,102852.25
2019-03-23T02:07:59.296Z,102857.90
2019-03-23T02:10:31.913Z,102853.11
2019-03-23T02:13:02.850Z,102863.15
2019-03-23T02:15:33.767Z,102857.93
2019-03-23T02:18:04.677Z,102850.94
2019-03-23T02:20:35.602Z,102838.70
2019-03-23T02:23:25.562Z,102837.40
2019-03-23T02:25:58.608Z,102826.92
2019-03-23T02:28:29.656Z,102821.23
2019-03-23T02:31:00.716Z,102812.98
2019-03-23T02:33:31.671Z,102807.34
2019-03-23T02:36:02.671Z,102797.73
2019-03-23T02:38:33.625Z,102787.67
2019-03-23T02:41:05.443Z,102782.91
2019-03-23T02:43:36.381Z,102775.50
2019-03-23T02:46:07.383Z,102775.08
2019-03-23T02:48:38.351Z,102765.95
2019-03-23T02:51:09.346Z,102768.99
2019-03-23T02:53:40.328Z,102767.25
2019-03-23T02:56:11.362Z,102768.56
2019-03-23T02:58:43.106Z,102772.50
2019-03-23T03:01:14.096Z,102772.06
2019-03-23T03:03:45.025Z,102771.63
2019-03-23T03:06:15.991Z,102768.58
2019-03-23T03:08:46.917Z,102755.05
2019-03-23T03:11:18.838Z,102760.17
2019-03-23T03:13:49.823Z,102753.13
2019-03-23T03:16:20.742Z,102758.31
2019-03-23T03:18:51.642Z,102756.45
2019-03-23T03:21:23.759Z,102748.44
2019-03-23T03:23:54.664Z,102738.31
2019-03-23T03:26:25.649Z,102732.08
2019-03-23T03:28:56.624Z,102727.18
2019-03-23T03:31:27.579Z,102732.31
2019-03-23T03:33:58.466Z,102737.47
2019-03-23T03:36:30.189Z,102735.21
2019-03-23T03:39:04.074Z,102736.86
2019-03-23T03:41:36.094Z,102744.66
2019-03-23T03:44:07.069Z,102736.69
2019-03-23T03:46:37.995Z,102732.63
2019-03-23T03:49:12.613Z,102739.55
2019-03-23T03:51:42.654Z,102736.44
2019-03-23T03:54:13.569Z,102734.16
2019-03-23T03:56:44.877Z,102730.56
2019-03-23T03:59:15.920Z,102732.20
2019-03-23T04:01:47.744Z,102732.95
2019-03-23T04:04:18.647Z,102728.44
2019-03-23T04:06:49.580Z,102730.90
2019-03-23T04:09:22.822Z,102728.94
2019-03-23T04:11:53.842Z,102728.25
2019-03-23T04:14:24.754Z,102727.22
2019-03-23T04:16:55.750Z,102712.98
2019-03-23T04:19:26.659Z,102717.97
2019-03-23T04:22:00.808Z,102721.74
2019-03-23T04:24:31.712Z,102715.39
2019-03-23T04:27:05.222Z,102713.89
2019-03-23T04:29:37.493Z,102705.33
2019-03-23T04:32:08.570Z,102702.46
2019-03-23T04:34:39.471Z,102698.77
2019-03-23T04:37:10.410Z,102701.30
2019-03-23T04:39:41.397Z,102704.13
2019-03-23T04:42:12.332Z,102694.75
2019-03-23T04:44:43.232Z,102695.54
2019-03-23T04:47:15.308Z,102688.41
2019-03-23T04:49:46.163Z,102680.22
2019-03-23T04:52:17.087Z,102685.76
2019-03-23T04:54:50.522Z,102675.95
2019-03-23T04:57:20.637Z,102672.44
2019-03-23T04:59:51.527Z,102675.78
2019-03-23T05:02:22.463Z,102670.52
2019-03-23T05:04:53.359Z,102670.02
2019-03-23T05:07:24.288Z,102669.91
2019-03-23T05:09:55.200Z,102668.16
2019-03-23T05:12:26.147Z,102670.13
2019-03-23T05:14:57.058Z,102675.29
2019-03-23T05:17:28.004Z,102666.95
2019-03-23T05:19:58.902Z,102666.45
2019-03-23T05:22:29.831Z,102669.47
2019-03-23T05:25:00.739Z,102671.61
2019-03-23T05:27:35.127Z,102670.20
2019-03-23T05:30:09.843Z,102667.16
2019-03-23T05:32:40.769Z,102668.48
2019-03-23T05:35:11.675Z,102662.78
2019-03-23T05:37:43.794Z,102661.95
2019-03-23T05:40:14.803Z,102661.45
2019-03-23T05:42:46.609Z,102652.66
2019-03-23T05:45:17.517Z,102650.41
2019-03-23T05:47:48.438Z,102641.58
2019-03-23T05:50:19.338Z,102634.15
2019-03-23T05:52:50.279Z,102634.16
2019-03-23T05:55:21.182Z,102634.05
2019-03-23T05:57:53.152Z,102632.17
2019-03-23T06:00:25.672Z,102623.37
2019-03-23T06:02:56.605Z,102627.55
2019-03-23T06:05:27.511Z,102625.78
2019-03-23T06:07:58.376Z,102619.01
2019-03-23T06:10:29.199Z,102615.77
2019-03-23T06:13:00.144Z,102620.09
2019-03-23T06:15:31.234Z,102616.41
2019-03-23T06:18:02.238Z,102615.44
2019-03-23T06:20:33.143Z,102613.77
2019-03-23T06:23:04.083Z,102617.66
2019-03-23T06:25:34.982Z,102612.75
2019-03-23T06:28:06.030Z,102608.28
2019-03-23T06:30:37.030Z,102617.77
2019-03-23T06:33:07.966Z,102610.74
2019-03-23T06:35:38.876Z,102607.03
2019-03-23T06:38:09.895Z,102605.67
2019-03-23T06:40:40.793Z,102607.38
2019-03-23T06:43:11.754Z,102602.78
2019-03-23T06:45:42.659Z,102596.42
2019-03-23T06:48:13.600Z,102589.40
2019-03-23T06:50:44.517Z,102587.58
2019-03-23T06:53:15.471Z,102588.42
2019-03-23T06:55:46.440Z,102580.24
2019-03-23T06:58:18.255Z,102577.78
2019-03-23T07:00:55.363Z,102569.05
2019-03-23T07:03:26.294Z,102571.08
2019-03-23T07:05:57.215Z,102563.16
2019-03-23T07:08:32.096Z,102558.52
2019-03-23T07:11:00.759Z,102558.23
2019-03-23T07:13:32.580Z,102554.77
2019-03-23T07:16:03.477Z,102562.34
2019-03-23T07:18:34.415Z,102551.58
2019-03-23T07:21:05.324Z,102550.48
2019-03-23T07:23:36.258Z,102540.40
2019-03-23T07:26:07.168Z,102541.52
2019-03-23T07:28:39.770Z,102534.53
2019-03-23T07:31:10.682Z,102533.73
2019-03-23T07:33:45.767Z,102531.34
2019-03-23T07:36:16.701Z,102527.75
2019-03-23T07:38:49.535Z,102524.39
2019-03-23T07:41:20.601Z,102518.77
2019-03-23T07:43:51.559Z,102511.84
2019-03-23T07:46:22.470Z,102505.13
2019-03-23T07:48:53.419Z,102500.22
2019-03-23T07:51:24.329Z,102493.97
2019-03-23T07:53:55.279Z,102492.05
2019-03-23T07:56:26.195Z,102484.08
2019-03-23T07:58:57.961Z,102485.08
2019-03-23T08:01:29.801Z,102477.53
2019-03-23T08:04:00.738Z,102474.86
2019-03-23T08:06:31.659Z,102467.39
2019-03-23T08:09:02.592Z,102459.48
2019-03-23T08:11:33.513Z,102464.06
2019-03-23T08:14:04.453Z,102471.30
2019-03-23T08:16:35.370Z,102462.78
2019-03-23T08:19:06.309Z,102457.03
2019-03-23T08:21:37.230Z,102462.16
2019-03-23T08:24:08.167Z,102457.92
2019-03-23T08:26:39.113Z,102456.42
2019-03-23T08:29:10.919Z,102452.28
2019-03-23T08:31:41.830Z,102448.50
2019-03-23T08:34:12.775Z,102443.52
2019-03-23T08:36:43.687Z,102448.66
2019-03-23T08:39:14.639Z,102449.48
2019-03-23T08:41:45.557Z,102447.97
2019-03-23T08:44:17.383Z,102443.93
2019-03-23T08:46:48.302Z,102437.83
2019-03-23T08:49:19.263Z,102437.45
2019-03-23T08:51:50.318Z,102440.24
2019-03-23T08:54:21.259Z,102434.28
2019-03-23T08:56:52.176Z,102426.69
2019-03-23T08:59:23.163Z,102424.42
2019-03-23T09:01:55.637Z,102424.28
2019-03-23T09:04:26.584Z,102421.47
2019-03-23T09:06:58.235Z,102414.80
2019-03-23T09:09:29.181Z,102403.83
2019-03-23T09:12:00.085Z,102394.12
2019-03-23T09:14:31.913Z,102387.27
2019-03-23T09:17:02.897Z,102387.85
2019-03-23T09:19:33.834Z,102377.92
2019-03-23T09:22:04.754Z,102381.53
2019-03-23T09:24:35.692Z,102378.29
2019-03-23T09:27:06.609Z,102380.82
2019-03-23T09:29:37.577Z,102372.94
2019-03-23T09:32:08.498Z,102368.44
2019-03-23T09:34:39.478Z,102357.41
2019-03-23T09:37:10.359Z,102356.64
2019-03-23T09:39:41.294Z,102356.36
2019-03-23T09:42:12.207Z,102351.67
2019-03-23T09:44:43.959Z,102353.27
2019-03-23T09:47:15.139Z,102368.80
2019-03-23T09:49:46.148Z,102370.89
2019-03-23T09:52:17.240Z,102359.48
2019-03-23T09:54:48.182Z,102352.15
2019-03-23T09:57:19.231Z,102350.60
2019-03-23T09:59:50.239Z,102351.87
2019-03-23T10:02:22.029Z,102344.31
2019-03-23T10:04:53.198Z,102349.70
2019-03-23T10:07:24.101Z,102350.48
2019-03-23T10:09:55.043Z,102341.91
2019-03-23T10:12:25.957Z,102337.25
2019-03-23T10:14:57.725Z,102330.98
2019-03-23T10:17:28.634Z,102328.32
2019-03-23T10:19:59.572Z,102316.89
2019-03-23T10:22:30.747Z,102310.69
2019-03-23T10:25:01.604Z,102315.17
2019-03-23T10:27:32.520Z,102310.88
2019-03-23T10:30:05.208Z,102312.69
2019-03-23T10:32:36.191Z,102311.06
2019-03-23T10:35:09.004Z,102309.95
2019-03-23T10:37:39.922Z,102308.22
2019-03-23T10:40:19.576Z,102310.44
2019-03-23T10:42:46.281Z,102302.80
2019-03-23T10:45:18.207Z,102297.73
2019-03-23T10:47:49.267Z,102299.47
2019-03-23T10:50:20.230Z,102301.75
2019-03-23T10:52:51.139Z,102289.94
2019-03-23T10:55:22.085Z,102304.22
2019-03-23T10:57:53.058Z,102298.51
2019-03-23T11:00:24.938Z,102293.81
2019-03-23T11:02:56.646Z,102288.17
2019-03-23T11:05:27.585Z,102276.91
2019-03-23T11:07:58.495Z,102274.21
2019-03-23T11:10:29.545Z,102276.30
2019-03-23T11:13:00.454Z,102281.29
2019-03-23T11:15:32.339Z,102279.25
2019-03-23T11:18:03.379Z,102277.64
2019-03-23T11:20:35.302Z,102279.37
2019-03-23T11:23:06.203Z,102280.13
2019-03-23T11:25:37.149Z,102284.52
2019-03-23T11:28:08.061Z,102281.45
2019-03-23T11:30:39.997Z,102278.22
2019-03-23T11:33:10.986Z,102275.77
2019-03-23T11:35:41.909Z,102265.09
2019-03-23T11:38:12.830Z,102269.09
2019-03-23T11:40:52.158Z,102261.55
2019-03-23T11:43:16.367Z,102265.09
2019-03-23T11:45:48.222Z,102264.60
2019-03-23T11:48:19.127Z,102259.74
2019-03-23T11:50:50.064Z,102261.25
2019-03-23T11:53:20.968Z,102261.53
2019-03-23T11:55:52.015Z,102264.26
2019-03-23T11:58:23.021Z,102259.42
2019-03-23T12:00:53.973Z,102262.54
2019-03-23T12:03:29.017Z,102261.17
2019-03-23T12:06:00.050Z,102260.75
2019-03-23T12:08:30.947Z,102256.16
2019-03-23T12:11:03.042Z,102253.26
2019-03-23T12:13:34.377Z,102245.39
2019-03-23T12:16:06.145Z,102230.06
2019-03-23T12:18:37.149Z,102225.95
2019-03-23T12:21:08.095Z,102229.56
2019-03-23T12:23:39.009Z,102222.28
2019-03-23T12:26:10.000Z,102223.98
2019-03-23T12:28:40.903Z,102230.74
2019-03-23T12:31:12.716Z,102226.49
2019-03-23T12:33:46.915Z,102227.83
2019-03-23T12:36:17.932Z,102229.11
2019-03-23T12:38:48.843Z,102231.04
2019-03-23T12:41:23.233Z,102231.78
2019-03-23T12:43:52.380Z,102229.25
2019-03-23T12:46:23.383Z,102226.48
2019-03-23T12:48:54.288Z,102234.25
2019-03-23T12:51:25.232Z,102231.58
2019-03-23T12:53:56.270Z,102230.80
2019-03-23T12:56:27.206Z,102231.92
2019-03-23T12:58:58.128Z,102227.38
2019-03-23T13:01:30.028Z,102231.11
2019-03-23T13:04:01.709Z,102235.48
2019-03-23T13:06:34.974Z,102241.30
2019-03-23T13:09:06.984Z,102241.13
2019-03-23T13:11:37.926Z,102249.20
2019-03-23T13:14:08.938Z,102252.67
2019-03-23T13:16:40.869Z,102245.92
2019-03-23T13:19:11.776Z,102249.01
2019-03-23T13:21:42.739Z,102252.08
2019-03-23T13:24:13.650Z,102259.06
2019-03-23T13:26:44.590Z,102277.48
2019-03-23T13:29:15.694Z,102281.05
2019-03-23T13:31:46.769Z,102286.31
2019-03-23T13:34:17.688Z,102281.81
2019-03-23T13:36:48.622Z,102284.95
2019-03-23T13:39:19.534Z,102284.37
2019-03-23T13:41:51.480Z,102288.02
2019-03-23T13:44:22.395Z,102290.56
2019-03-23T13:46:54.290Z,102293.50
2019-03-23T13:49:25.195Z,102308.52
2019-03-23T13:51:56.144Z,102296.78
2019-03-23T13:54:27.052Z,102303.23
2019-03-23T13:56:57.988Z,102306.83
2019-03-23T13:59:28.907Z,102301.14
2019-03-23T14:02:00.879Z,102307.32
2019-03-23T14:04:31.759Z,102300.20
2019-03-23T14:07:02.701Z,102301.86
2019-03-23T14:09:33.606Z,102318.91
2019-03-23T14:12:04.546Z,102320.70
2019-03-23T14:14:35.469Z,102309.91
2019-03-23T14:17:06.596Z,102315.59
2019-03-23T14:19:37.507Z,102316.90
2019-03-23T14:22:08.461Z,102328.40
2019-03-23T14:24:45.007Z,102328.11
2019-03-23T14:27:12.014Z,102327.66
2019-03-23T14:29:42.933Z,102328.66
2019-03-23T14:32:14.786Z,102338.82
2019-03-23T14:34:45.691Z,102347.30
2019-03-23T14:37:16.625Z,102347.16
2019-03-23T14:39:47.535Z,102346.69
2019-03-23T14:42:18.474Z,102350.02
2019-03-23T14:44:49.382Z,102363.57
2019-03-23T14:47:20.437Z,102358.53
2019-03-23T14:49:51.350Z,102357.49
2019-03-23T14:52:22.272Z,102361.41
2019-03-23T14:54:53.253Z,102360.05
2019-03-23T14:57:24.188Z,102365.10
2019-03-23T14:59:58.148Z,102365.97
2019-03-23T15:02:30.001Z,102360.41
2019-03-23T15:05:01.703Z,102356.94
2019-03-23T15:07:32.666Z,102369.74
2019-03-23T15:10:05.891Z,102370.48
2019-03-23T15:12:36.805Z,102374.67
2019-03-23T15:15:08.530Z,102375.12
2019-03-23T15:17:48.400Z,102376.02
2019-03-23T15:20:12.112Z,102369.98
2019-03-23T15:22:46.639Z,102373.62
2019-03-23T15:25:19.059Z,102381.16
2019-03-23T15:27:50.005Z,102368.30
2019-03-23T15:30:20.910Z,102369.33
2019-03-23T15:32:52.774Z,102374.40
2019-03-23T15:35:23.684Z,102367.21
2019-03-23T15:37:57.170Z,102369.02
2019-03-23T15:40:27.318Z,102369.48
2019-03-23T15:42:58.252Z,102368.08
2019-03-23T15:45:34.832Z,102377.88
2019-03-23T15:48:05.814Z,102379.98
2019-03-23T15:50:36.731Z,102370.30
2019-03-23T15:53:09.742Z,102372.11
2019-03-23T15:55:40.655Z,102377.31
2019-03-23T15:58:11.609Z,102370.87
2019-03-23T16:00:42.516Z,102362.94
2019-03-23T16:03:14.296Z,102360.34
2019-03-23T16:05:45.197Z,102373.22
2019-03-23T16:08:16.138Z,102367.97
2019-03-23T16:10:47.060Z,102368.20
2019-03-23T16:13:17.990Z,102358.80
2019-03-23T16:15:48.896Z,102374.55
2019-03-23T16:18:20.840Z,102372.30
2019-03-23T16:20:51.754Z,102371.83
2019-03-23T16:23:23.540Z,102375.60
2019-03-23T16:25:54.467Z,102371.80
2019-03-23T16:28:25.404Z,102374.70
2019-03-23T16:30:56.324Z,102378.09
2019-03-23T16:33:28.359Z,102384.37
2019-03-23T16:35:59.283Z,102386.20
2019-03-23T16:38:30.213Z,102392.20
2019-03-23T16:41:01.148Z,102386.20
2019-03-23T16:43:32.083Z,102395.06
2019-03-23T16:46:03.121Z,102385.10
2019-03-23T16:48:34.067Z,102392.53
2019-03-23T16:51:04.973Z,102398.00
2019-03-23T16:53:35.953Z,102402.80
2019-03-23T16:56:07.017Z,102403.84
2019-03-23T16:58:39.532Z,102402.79
2019-03-23T17:01:10.488Z,102397.29
2019-03-23T17:03:42.262Z,102407.88
2019-03-23T17:06:14.909Z,102404.70
2019-03-23T17:08:45.854Z,102419.52
2019-03-23T17:11:24.041Z,102415.67
2019-03-23T17:13:56.629Z,102423.84
2019-03-23T17:16:27.538Z,102420.84
2019-03-23T17:18:59.344Z,102414.33
2019-03-23T17:21:30.233Z,102414.03
2019-03-23T17:24:01.194Z,102424.52
2019-03-23T17:26:32.113Z,102424.70
2019-03-23T17:29:04.689Z,102420.19
2019-03-23T17:31:35.777Z,102430.21
2019-03-23T17:34:07.775Z,102428.55
2019-03-23T17:36:38.730Z,102424.59
2019-03-23T17:39:09.812Z,102417.63
2019-03-23T17:41:40.801Z,102426.60
2019-03-23T17:44:11.757Z,102417.95
2019-03-23T17:46:42.648Z,102426.23
2019-03-23T17:49:14.468Z,102427.58
2019-03-23T17:51:45.490Z,102428.19
2019-03-23T17:54:17.928Z,102416.98
2019-03-23T17:56:48.804Z,102424.97
2019-03-23T17:59:19.814Z,102422.09
2019-03-23T18:01:50.822Z,102428.23
2019-03-23T18:04:23.493Z,102427.98
2019-03-23T18:06:55.232Z,102415.31
2019-03-23T18:09:26.239Z,102432.12
2019-03-23T18:11:57.144Z,102437.47
2019-03-23T18:14:28.177Z,102430.44
2019-03-23T18:16:59.100Z,102425.73
2019-03-23T18:19:30.871Z,102431.15
2019-03-23T18:22:01.776Z,102429.51
2019-03-23T18:24:32.946Z,102430.58
2019-03-23T18:27:03.910Z,102430.32
2019-03-23T18:29:34.910Z,102428.19
2019-03-23T18:32:05.930Z,102418.14
2019-03-23T18:34:37.738Z,102419.13
2019-03-23T18:37:08.647Z,102437.14
2019-03-23T18:39:39.571Z,102435.01
2019-03-23T18:42:10.488Z,102443.78
2019-03-23T18:44:41.561Z,102446.86
2019-03-23T18:47:12.529Z,102448.69
2019-03-23T18:49:44.369Z,102458.88
2019-03-23T18:52:15.367Z,102459.93
2019-03-23T18:54:46.310Z,102460.39
2019-03-23T18:57:17.218Z,102474.61
2019-03-23T18:59:48.272Z,102464.56
2019-03-23T19:02:19.366Z,102464.99
2019-03-23T19:04:51.165Z,102473.45
2019-03-23T19:07:25.584Z,102474.27
2019-03-23T19:09:57.293Z,102469.61
2019-03-23T19:12:28.195Z,102468.41
2019-03-23T19:14:59.188Z,102465.88
2019-03-23T19:17:30.211Z,102467.59
2019-03-23T19:20:02.026Z,102456.30
2019-03-23T19:22:32.948Z,102463.08
2019-03-23T19:25:14.949Z,102467.02
2019-03-23T19:27:37.414Z,102458.76
2019-03-23T19:30:12.477Z,102467.08
2019-03-23T19:32:44.693Z,102465.92
2019-03-23T19:35:16.464Z,102475.13
2019-03-23T19:37:47.414Z,102482.25
2019-03-23T19:40:18.295Z,102475.73
2019-03-23T19:42:49.210Z,102477.00
2019-03-23T19:45:20.140Z,102484.06
2019-03-23T19:47:51.157Z,102484.51
2019-03-23T19:50:23.016Z,102492.06
2019-03-23T19:52:53.909Z,102495.69
2019-03-23T19:55:24.843Z,102493.48
2019-03-23T19:57:55.791Z,102486.96
2019-03-23T20:00:26.810Z,102481.85
2019-03-23T20:02:57.711Z,102474.34
2019-03-23T20:05:28.656Z,102483.66
2019-03-23T20:08:00.345Z,102493.39
2019-03-23T20:10:31.328Z,102494.75
2019-03-23T20:13:02.254Z,102498.45
2019-03-23T20:15:33.168Z,102502.39
2019-03-23T20:18:04.073Z,102511.20
2019-03-23T20:20:35.134Z,102519.62
2019-03-23T20:23:07.493Z,102518.31
2019-03-23T20:25:39.790Z,102512.70
2019-03-23T20:28:11.063Z,102515.77
2019-03-23T20:30:41.999Z,102517.56
2019-03-23T20:33:19.280Z,102532.51
2019-03-23T20:35:46.571Z,102534.74
2019-03-23T20:38:17.501Z,102520.85
2019-03-23T20:40:48.438Z,102531.84
2019-03-23T20:43:19.350Z,102530.58
2019-03-23T20:45:50.280Z,102544.67
2019-03-23T20:48:21.179Z,102552.13
2019-03-23T20:50:52.953Z,102550.45
2019-03-23T20:53:23.855Z,102550.57
2019-03-23T20:55:54.791Z,102539.19
2019-03-23T20:58:25.705Z,102535.77
2019-03-23T21:00:56.646Z,102539.31
2019-03-23T21:03:27.546Z,102536.25
2019-03-23T21:05:59.375Z,102528.84
2019-03-23T21:08:31.890Z,102525.37
2019-03-23T21:11:02.817Z,102529.83
2019-03-23T21:13:34.623Z,102520.64
2019-03-23T21:16:05.935Z,102519.33
2019-03-23T21:18:36.832Z,102521.08
2019-03-23T21:21:08.698Z,102535.60
2019-03-23T21:23:39.610Z,102538.23
2019-03-23T21:26:10.536Z,102541.33
2019-03-23T21:28:41.453Z,102536.08
2019-03-23T21:31:12.388Z,102536.56
2019-03-23T21:33:43.296Z,102545.39
2019-03-23T21:36:15.466Z,102543.23
2019-03-23T21:38:46.358Z,102554.65
2019-03-23T21:41:18.159Z,102554.22
2019-03-23T21:43:49.065Z,102560.78
2019-03-23T21:46:19.992Z,102556.48
2019-03-23T21:48:50.889Z,102559.98
2019-03-23T21:51:22.923Z,102551.27
2019-03-23T21:53:53.817Z,102539.52
2019-03-23T21:56:24.738Z,102546.92
2019-03-23T21:58:55.636Z,102553.89
2019-03-23T22:01:26.580Z,102560.45
2019-03-23T22:03:57.484Z,102564.39
2019-03-23T22:06:31.743Z,102566.14
2019-03-23T22:09:02.706Z,102560.96
2019-03-23T22:11:33.626Z,102553.08
2019-03-23T22:14:04.520Z,102551.77
2019-03-23T22:16:35.438Z,102549.55
2019-03-23T22:19:06.329Z,102548.67
2019-03-23T22:21:37.272Z,102548.30
2019-03-23T22:24:08.168Z,102546.12
2019-03-23T22:26:39.104Z,102543.97
2019-03-23T22:29:10.022Z,102541.27
2019-03-23T22:31:40.951Z,102549.14
2019-03-23T22:34:11.900Z,102553.08
2019-03-23T22:36:46.059Z,102560.52
2019-03-23T22:39:16.930Z,102556.18
2019-03-23T22:41:47.851Z,102564.50
2019-03-23T22:44:18.828Z,102549.25
2019-03-23T22:46:52.747Z,102555.37
2019-03-23T22:49:23.650Z,102554.06
2019-03-23T22:51:54.598Z,102559.78
2019-03-23T22:54:25.493Z,102555.88
2019-03-23T22:56:56.430Z,102555.88
2019-03-23T22:59:27.314Z,102562.01
2019-03-23T23:01:58.612Z,102554.60
2019-03-23T23:04:29.512Z,102558.58
2019-03-23T23:07:02.175Z,102559.05
2019-03-23T23:09:34.141Z,102559.95
2019-03-23T23:12:05.357Z,102563.55
2019-03-23T23:14:36.250Z,102566.62
2019-03-23T23:17:07.189Z,102569.27
2019-03-23T23:19:38.093Z,102565.37
2019-03-23T23:22:09.028Z,102571.89
2019-03-23T23:24:40.011Z,102578.92
2019-03-23T23:27:11.021Z,102583.36
2019-03-23T23:29:41.909Z,102583.33
2019-03-23T23:32:12.837Z,102577.23
2019-03-23T23:34:43.735Z,102573.33
2019-03-23T23:37:14.692Z,102577.70
2019-03-23T23:39:45.594Z,102575.11
2019-03-23T23:42:17.015Z,102574.23
2019-03-23T23:44:47.917Z,102579.95
2019-03-23T23:47:21.561Z,102576.48
2019-03-23T23:49:52.471Z,102570.39
2019-03-23T23:52:24.293Z,102568.67
2019-03-23T23:54:55.190Z,102567.33
2019-03-23T23:57:26.108Z,102572.20
2019-03-23T23:59:57.010Z,102572.67
